sensor_id;sensor_type;location;lat;lon;timestamp;P1;durP1;ratioP1;P2;durP2;ratioP2
36691;SDS011;22678;52.052;4.242;2022-08-19T00:00:44;6.55;;;2.55;;
36691;SDS011;22678;52.052;4.242;2022-08-19T00:03:10;3.92;;;2.35;;
36691;SDS011;22678;52.052;4.242;2022-08-19T00:05:35;6.35;;;2.60;;
36691;SDS011;22678;52.052;4.242;2022-08-19T00:08:00;6.45;;;3.15;;
36691;SDS011;22678;52.052;4.242;2022-08-19T00:10:26;5.63;;;2.33;;
36691;SDS011;22678;52.052;4.242;2022-08-19T00:12:51;4.35;;;2.17;;
36691;SDS011;22678;52.052;4.242;2022-08-19T00:15:17;8.32;;;2.33;;
36691;SDS011;22678;52.052;4.242;2022-08-19T00:17:45;4.65;;;2.25;;
36691;SDS011;22678;52.052;4.242;2022-08-19T00:20:12;4.45;;;2.13;;
36691;SDS011;22678;52.052;4.242;2022-08-19T00:22:41;7.53;;;2.03;;
36691;SDS011;22678;52.052;4.242;2022-08-19T00:25:07;4.28;;;2.00;;
36691;SDS011;22678;52.052;4.242;2022-08-19T00:27:33;4.72;;;2.55;;
36691;SDS011;22678;52.052;4.242;2022-08-19T00:29:58;6.68;;;2.65;;
36691;SDS011;22678;52.052;4.242;2022-08-19T00:32:24;5.80;;;2.67;;
36691;SDS011;22678;52.052;4.242;2022-08-19T00:34:50;9.35;;;2.65;;
36691;SDS011;22678;52.052;4.242;2022-08-19T00:37:20;6.85;;;2.67;;
36691;SDS011;22678;52.052;4.242;2022-08-19T00:39:48;4.38;;;1.98;;
36691;SDS011;22678;52.052;4.242;2022-08-19T00:42:13;5.32;;;2.50;;
36691;SDS011;22678;52.052;4.242;2022-08-19T00:44:40;10.35;;;5.05;;
36691;SDS011;22678;52.052;4.242;2022-08-19T00:47:06;17.63;;;7.57;;
36691;SDS011;22678;52.052;4.242;2022-08-19T00:49:33;12.98;;;6.30;;
36691;SDS011;22678;52.052;4.242;2022-08-19T00:52:03;9.35;;;3.30;;
36691;SDS011;22678;52.052;4.242;2022-08-19T00:54:31;7.20;;;3.45;;
36691;SDS011;22678;52.052;4.242;2022-08-19T00:56:58;9.63;;;3.85;;
36691;SDS011;22678;52.052;4.242;2022-08-19T00:59:24;7.22;;;3.58;;
36691;SDS011;22678;52.052;4.242;2022-08-19T01:01:50;7.55;;;3.20;;
36691;SDS011;22678;52.052;4.242;2022-08-19T01:04:17;10.63;;;2.95;;
36691;SDS011;22678;52.052;4.242;2022-08-19T01:06:42;6.25;;;3.17;;
36691;SDS011;22678;52.052;4.242;2022-08-19T01:09:07;5.43;;;2.95;;
36691;SDS011;22678;52.052;4.242;2022-08-19T01:11:34;4.90;;;2.92;;
36691;SDS011;22678;52.052;4.242;2022-08-19T01:14:04;6.43;;;2.88;;
36691;SDS011;22678;52.052;4.242;2022-08-19T01:16:30;6.38;;;2.58;;
36691;SDS011;22678;52.052;4.242;2022-08-19T01:18:58;10.43;;;3.92;;
36691;SDS011;22678;52.052;4.242;2022-08-19T01:21:34;6.70;;;4.00;;
36691;SDS011;22678;52.052;4.242;2022-08-19T01:24:05;7.20;;;4.05;;
36691;SDS011;22678;52.052;4.242;2022-08-19T01:26:31;6.68;;;4.22;;
36691;SDS011;22678;52.052;4.242;2022-08-19T01:28:57;6.35;;;3.05;;
36691;SDS011;22678;52.052;4.242;2022-08-19T01:31:25;6.05;;;4.03;;
36691;SDS011;22678;52.052;4.242;2022-08-19T01:33:55;6.93;;;4.13;;
36691;SDS011;22678;52.052;4.242;2022-08-19T01:36:23;10.30;;;5.28;;
36691;SDS011;22678;52.052;4.242;2022-08-19T01:38:53;11.10;;;7.35;;
36691;SDS011;22678;52.052;4.242;2022-08-19T01:41:19;8.15;;;6.20;;
36691;SDS011;22678;52.052;4.242;2022-08-19T01:43:44;8.23;;;6.00;;
36691;SDS011;22678;52.052;4.242;2022-08-19T01:46:10;10.38;;;6.35;;
36691;SDS011;22678;52.052;4.242;2022-08-19T01:48:37;16.05;;;9.57;;
36691;SDS011;22678;52.052;4.242;2022-08-19T01:51:05;14.02;;;8.95;;
36691;SDS011;22678;52.052;4.242;2022-08-19T01:53:31;14.95;;;10.23;;
36691;SDS011;22678;52.052;4.242;2022-08-19T01:55:57;19.50;;;13.48;;
36691;SDS011;22678;52.052;4.242;2022-08-19T01:58:24;17.35;;;12.27;;
36691;SDS011;22678;52.052;4.242;2022-08-19T02:03:21;24.27;;;14.05;;
36691;SDS011;22678;52.052;4.242;2022-08-19T02:05:47;22.67;;;14.25;;
36691;SDS011;22678;52.052;4.242;2022-08-19T02:08:18;20.95;;;13.02;;
36691;SDS011;22678;52.052;4.242;2022-08-19T02:10:43;19.38;;;12.73;;
36691;SDS011;22678;52.052;4.242;2022-08-19T02:13:09;27.63;;;15.85;;
36691;SDS011;22678;52.052;4.242;2022-08-19T02:15:35;23.73;;;13.38;;
36691;SDS011;22678;52.052;4.242;2022-08-19T02:18:01;26.08;;;16.73;;
36691;SDS011;22678;52.052;4.242;2022-08-19T02:20:26;28.15;;;16.42;;
36691;SDS011;22678;52.052;4.242;2022-08-19T02:22:51;24.67;;;14.63;;
36691;SDS011;22678;52.052;4.242;2022-08-19T02:25:17;28.65;;;17.00;;
36691;SDS011;22678;52.052;4.242;2022-08-19T02:27:43;32.25;;;17.17;;
36691;SDS011;22678;52.052;4.242;2022-08-19T02:30:10;26.05;;;17.60;;
36691;SDS011;22678;52.052;4.242;2022-08-19T02:32:37;23.83;;;15.50;;
36691;SDS011;22678;52.052;4.242;2022-08-19T02:35:03;29.98;;;17.88;;
36691;SDS011;22678;52.052;4.242;2022-08-19T02:37:29;23.17;;;15.23;;
36691;SDS011;22678;52.052;4.242;2022-08-19T02:40:13;25.92;;;13.77;;
36691;SDS011;22678;52.052;4.242;2022-08-19T02:42:38;22.25;;;15.48;;
36691;SDS011;22678;52.052;4.242;2022-08-19T02:45:04;23.25;;;14.80;;
36691;SDS011;22678;52.052;4.242;2022-08-19T02:47:30;22.65;;;13.85;;
36691;SDS011;22678;52.052;4.242;2022-08-19T02:49:56;22.70;;;15.18;;
36691;SDS011;22678;52.052;4.242;2022-08-19T02:52:21;27.48;;;14.52;;
36691;SDS011;22678;52.052;4.242;2022-08-19T02:54:48;27.98;;;16.95;;
36691;SDS011;22678;52.052;4.242;2022-08-19T02:57:13;23.60;;;12.90;;
36691;SDS011;22678;52.052;4.242;2022-08-19T02:59:39;22.35;;;13.52;;
36691;SDS011;22678;52.052;4.242;2022-08-19T03:02:04;24.38;;;13.88;;
36691;SDS011;22678;52.052;4.242;2022-08-19T03:04:30;24.60;;;15.07;;
36691;SDS011;22678;52.052;4.242;2022-08-19T03:06:55;20.73;;;14.00;;
36691;SDS011;22678;52.052;4.242;2022-08-19T03:09:20;20.48;;;13.43;;
36691;SDS011;22678;52.052;4.242;2022-08-19T03:11:46;20.02;;;13.07;;
36691;SDS011;22678;52.052;4.242;2022-08-19T03:14:11;19.58;;;12.82;;
36691;SDS011;22678;52.052;4.242;2022-08-19T03:16:42;21.52;;;13.55;;
36691;SDS011;22678;52.052;4.242;2022-08-19T03:19:11;20.05;;;12.00;;
36691;SDS011;22678;52.052;4.242;2022-08-19T03:21:37;22.65;;;13.02;;
36691;SDS011;22678;52.052;4.242;2022-08-19T03:24:05;17.95;;;12.65;;
36691;SDS011;22678;52.052;4.242;2022-08-19T03:26:32;22.63;;;13.13;;
36691;SDS011;22678;52.052;4.242;2022-08-19T03:29:01;21.42;;;12.05;;
36691;SDS011;22678;52.052;4.242;2022-08-19T03:31:28;18.10;;;12.88;;
36691;SDS011;22678;52.052;4.242;2022-08-19T03:33:53;22.73;;;13.32;;
36691;SDS011;22678;52.052;4.242;2022-08-19T03:36:20;29.23;;;17.40;;
36691;SDS011;22678;52.052;4.242;2022-08-19T03:38:50;25.00;;;16.05;;
36691;SDS011;22678;52.052;4.242;2022-08-19T03:41:19;29.60;;;16.35;;
36691;SDS011;22678;52.052;4.242;2022-08-19T03:43:47;26.88;;;17.23;;
36691;SDS011;22678;52.052;4.242;2022-08-19T03:46:14;29.40;;;16.65;;
36691;SDS011;22678;52.052;4.242;2022-08-19T03:48:42;35.30;;;21.00;;
36691;SDS011;22678;52.052;4.242;2022-08-19T03:51:16;35.65;;;18.40;;
36691;SDS011;22678;52.052;4.242;2022-08-19T03:53:43;38.85;;;21.35;;
36691;SDS011;22678;52.052;4.242;2022-08-19T03:56:09;35.17;;;22.70;;
36691;SDS011;22678;52.052;4.242;2022-08-19T03:58:36;42.55;;;22.88;;
36691;SDS011;22678;52.052;4.242;2022-08-19T04:01:06;45.70;;;29.42;;
36691;SDS011;22678;52.052;4.242;2022-08-19T04:03:32;55.15;;;29.77;;
36691;SDS011;22678;52.052;4.242;2022-08-19T04:05:58;48.90;;;28.50;;
36691;SDS011;22678;52.052;4.242;2022-08-19T04:08:23;55.05;;;28.52;;
36691;SDS011;22678;52.052;4.242;2022-08-19T04:10:48;50.90;;;28.48;;
36691;SDS011;22678;52.052;4.242;2022-08-19T04:13:14;57.25;;;30.40;;
36691;SDS011;22678;52.052;4.242;2022-08-19T04:15:41;48.40;;;27.02;;
36691;SDS011;22678;52.052;4.242;2022-08-19T04:18:08;44.90;;;26.30;;
36691;SDS011;22678;52.052;4.242;2022-08-19T04:20:44;52.22;;;28.95;;
36691;SDS011;22678;52.052;4.242;2022-08-19T04:23:11;40.55;;;25.17;;
36691;SDS011;22678;52.052;4.242;2022-08-19T04:25:42;47.42;;;25.95;;
36691;SDS011;22678;52.052;4.242;2022-08-19T04:28:09;45.95;;;29.17;;
36691;SDS011;22678;52.052;4.242;2022-08-19T04:30:39;47.42;;;25.27;;
36691;SDS011;22678;52.052;4.242;2022-08-19T04:33:17;48.50;;;25.77;;
36691;SDS011;22678;52.052;4.242;2022-08-19T04:35:46;49.03;;;24.08;;
36691;SDS011;22678;52.052;4.242;2022-08-19T04:38:13;40.65;;;25.25;;
36691;SDS011;22678;52.052;4.242;2022-08-19T04:40:50;47.22;;;22.55;;
36691;SDS011;22678;52.052;4.242;2022-08-19T04:43:36;48.88;;;27.08;;
36691;SDS011;22678;52.052;4.242;2022-08-19T04:46:06;50.10;;;23.35;;
36691;SDS011;22678;52.052;4.242;2022-08-19T04:48:33;43.58;;;23.17;;
36691;SDS011;22678;52.052;4.242;2022-08-19T04:50:58;36.63;;;21.70;;
36691;SDS011;22678;52.052;4.242;2022-08-19T04:53:33;44.60;;;25.77;;
36691;SDS011;22678;52.052;4.242;2022-08-19T04:56:03;42.50;;;23.17;;
36691;SDS011;22678;52.052;4.242;2022-08-19T04:58:32;54.42;;;23.95;;
36691;SDS011;22678;52.052;4.242;2022-08-19T05:00:58;42.58;;;22.90;;
36691;SDS011;22678;52.052;4.242;2022-08-19T05:03:25;43.85;;;23.73;;
36691;SDS011;22678;52.052;4.242;2022-08-19T05:05:51;42.13;;;23.98;;
36691;SDS011;22678;52.052;4.242;2022-08-19T05:08:17;38.85;;;23.65;;
36691;SDS011;22678;52.052;4.242;2022-08-19T05:10:45;49.78;;;22.55;;
36691;SDS011;22678;52.052;4.242;2022-08-19T05:13:12;40.15;;;21.42;;
36691;SDS011;22678;52.052;4.242;2022-08-19T05:15:37;51.28;;;23.77;;
36691;SDS011;22678;52.052;4.242;2022-08-19T05:18:03;38.17;;;22.15;;
36691;SDS011;22678;52.052;4.242;2022-08-19T05:20:47;44.53;;;22.58;;
36691;SDS011;22678;52.052;4.242;2022-08-19T05:23:30;43.08;;;23.65;;
36691;SDS011;22678;52.052;4.242;2022-08-19T05:25:56;47.80;;;25.17;;
36691;SDS011;22678;52.052;4.242;2022-08-19T05:28:21;41.50;;;24.90;;
36691;SDS011;22678;52.052;4.242;2022-08-19T05:30:46;45.53;;;24.15;;
36691;SDS011;22678;52.052;4.242;2022-08-19T05:33:13;38.63;;;21.88;;
36691;SDS011;22678;52.052;4.242;2022-08-19T05:35:39;49.53;;;20.65;;
36691;SDS011;22678;52.052;4.242;2022-08-19T05:38:06;47.55;;;25.52;;
36691;SDS011;22678;52.052;4.242;2022-08-19T05:40:34;50.58;;;23.35;;
36691;SDS011;22678;52.052;4.242;2022-08-19T05:43:03;42.75;;;21.88;;
36691;SDS011;22678;52.052;4.242;2022-08-19T05:45:30;36.92;;;21.83;;
36691;SDS011;22678;52.052;4.242;2022-08-19T05:47:55;37.35;;;22.40;;
36691;SDS011;22678;52.052;4.242;2022-08-19T05:50:21;45.42;;;25.35;;
36691;SDS011;22678;52.052;4.242;2022-08-19T05:52:47;39.22;;;22.38;;
36691;SDS011;22678;52.052;4.242;2022-08-19T05:55:12;35.17;;;20.20;;
36691;SDS011;22678;52.052;4.242;2022-08-19T05:57:38;40.47;;;19.60;;
36691;SDS011;22678;52.052;4.242;2022-08-19T06:00:05;34.85;;;18.75;;
36691;SDS011;22678;52.052;4.242;2022-08-19T06:02:35;36.70;;;18.90;;
36691;SDS011;22678;52.052;4.242;2022-08-19T06:05:02;30.08;;;16.25;;
36691;SDS011;22678;52.052;4.242;2022-08-19T06:07:28;33.95;;;18.52;;
36691;SDS011;22678;52.052;4.242;2022-08-19T06:09:54;30.17;;;17.60;;
36691;SDS011;22678;52.052;4.242;2022-08-19T06:12:19;41.97;;;19.10;;
36691;SDS011;22678;52.052;4.242;2022-08-19T06:14:55;32.92;;;17.88;;
36691;SDS011;22678;52.052;4.242;2022-08-19T06:17:21;31.30;;;17.23;;
36691;SDS011;22678;52.052;4.242;2022-08-19T06:19:49;25.30;;;15.50;;
36691;SDS011;22678;52.052;4.242;2022-08-19T06:22:15;34.70;;;17.33;;
36691;SDS011;22678;52.052;4.242;2022-08-19T06:24:41;27.88;;;14.05;;
36691;SDS011;22678;52.052;4.242;2022-08-19T06:27:06;33.22;;;15.18;;
36691;SDS011;22678;52.052;4.242;2022-08-19T06:29:31;26.77;;;14.35;;
36691;SDS011;22678;52.052;4.242;2022-08-19T06:31:58;34.38;;;14.48;;
36691;SDS011;22678;52.052;4.242;2022-08-19T06:34:24;28.88;;;16.63;;
36691;SDS011;22678;52.052;4.242;2022-08-19T06:36:52;20.85;;;12.93;;
36691;SDS011;22678;52.052;4.242;2022-08-19T06:39:20;30.35;;;14.35;;
36691;SDS011;22678;52.052;4.242;2022-08-19T06:41:51;26.90;;;15.48;;
36691;SDS011;22678;52.052;4.242;2022-08-19T06:44:19;30.27;;;12.13;;
36691;SDS011;22678;52.052;4.242;2022-08-19T06:46:47;26.20;;;11.35;;
36691;SDS011;22678;52.052;4.242;2022-08-19T06:49:14;25.60;;;12.90;;
36691;SDS011;22678;52.052;4.242;2022-08-19T06:51:43;19.92;;;11.13;;
36691;SDS011;22678;52.052;4.242;2022-08-19T06:54:12;24.92;;;11.38;;
36691;SDS011;22678;52.052;4.242;2022-08-19T06:56:38;25.55;;;12.57;;
36691;SDS011;22678;52.052;4.242;2022-08-19T06:59:06;23.30;;;11.57;;
36691;SDS011;22678;52.052;4.242;2022-08-19T07:01:37;23.13;;;11.23;;
36691;SDS011;22678;52.052;4.242;2022-08-19T07:04:11;22.35;;;11.52;;
36691;SDS011;22678;52.052;4.242;2022-08-19T07:06:37;29.98;;;13.45;;
36691;SDS011;22678;52.052;4.242;2022-08-19T07:09:07;22.95;;;10.70;;
36691;SDS011;22678;52.052;4.242;2022-08-19T07:11:33;21.40;;;9.90;;
36691;SDS011;22678;52.052;4.242;2022-08-19T07:13:59;18.02;;;10.02;;
36691;SDS011;22678;52.052;4.242;2022-08-19T07:16:25;14.27;;;6.65;;
36691;SDS011;22678;52.052;4.242;2022-08-19T07:18:51;12.57;;;5.22;;
36691;SDS011;22678;52.052;4.242;2022-08-19T07:21:19;8.88;;;3.38;;
36691;SDS011;22678;52.052;4.242;2022-08-19T07:23:51;18.13;;;4.28;;
36691;SDS011;22678;52.052;4.242;2022-08-19T07:26:21;11.00;;;4.20;;
36691;SDS011;22678;52.052;4.242;2022-08-19T07:28:48;15.88;;;4.22;;
36691;SDS011;22678;52.052;4.242;2022-08-19T07:31:16;10.90;;;5.10;;
36691;SDS011;22678;52.052;4.242;2022-08-19T07:33:43;13.05;;;3.60;;
36691;SDS011;22678;52.052;4.242;2022-08-19T07:36:10;9.80;;;3.78;;
36691;SDS011;22678;52.052;4.242;2022-08-19T07:38:38;17.67;;;3.72;;
36691;SDS011;22678;52.052;4.242;2022-08-19T07:41:05;13.65;;;4.15;;
36691;SDS011;22678;52.052;4.242;2022-08-19T07:43:31;10.40;;;3.70;;
36691;SDS011;22678;52.052;4.242;2022-08-19T07:45:57;12.65;;;3.65;;
36691;SDS011;22678;52.052;4.242;2022-08-19T07:48:23;9.27;;;3.28;;
36691;SDS011;22678;52.052;4.242;2022-08-19T07:50:53;8.75;;;3.17;;
36691;SDS011;22678;52.052;4.242;2022-08-19T07:53:23;11.07;;;3.63;;
36691;SDS011;22678;52.052;4.242;2022-08-19T07:55:49;7.20;;;3.67;;
36691;SDS011;22678;52.052;4.242;2022-08-19T07:58:16;10.70;;;4.57;;
36691;SDS011;22678;52.052;4.242;2022-08-19T08:00:44;11.32;;;5.10;;
36691;SDS011;22678;52.052;4.242;2022-08-19T08:03:12;13.70;;;3.25;;
36691;SDS011;22678;52.052;4.242;2022-08-19T08:05:38;17.92;;;3.67;;
36691;SDS011;22678;52.052;4.242;2022-08-19T08:08:22;10.02;;;3.83;;
36691;SDS011;22678;52.052;4.242;2022-08-19T08:11:06;8.02;;;3.03;;
36691;SDS011;22678;52.052;4.242;2022-08-19T08:13:32;11.43;;;3.88;;
36691;SDS011;22678;52.052;4.242;2022-08-19T08:16:00;14.75;;;2.70;;
36691;SDS011;22678;52.052;4.242;2022-08-19T08:18:26;8.23;;;2.30;;
36691;SDS011;22678;52.052;4.242;2022-08-19T08:20:51;9.00;;;4.43;;
36691;SDS011;22678;52.052;4.242;2022-08-19T08:23:16;15.75;;;3.55;;
36691;SDS011;22678;52.052;4.242;2022-08-19T08:25:48;12.48;;;5.35;;
36691;SDS011;22678;52.052;4.242;2022-08-19T08:28:15;10.38;;;3.45;;
36691;SDS011;22678;52.052;4.242;2022-08-19T08:30:41;7.63;;;1.63;;
36691;SDS011;22678;52.052;4.242;2022-08-19T08:33:08;7.97;;;2.47;;
36691;SDS011;22678;52.052;4.242;2022-08-19T08:35:35;5.68;;;1.38;;
36691;SDS011;22678;52.052;4.242;2022-08-19T08:38:00;9.77;;;2.42;;
36691;SDS011;22678;52.052;4.242;2022-08-19T08:42:56;13.50;;;3.60;;
36691;SDS011;22678;52.052;4.242;2022-08-19T08:45:33;8.80;;;2.97;;
36691;SDS011;22678;52.052;4.242;2022-08-19T08:48:16;7.07;;;2.67;;
36691;SDS011;22678;52.052;4.242;2022-08-19T08:50:46;4.85;;;1.52;;
36691;SDS011;22678;52.052;4.242;2022-08-19T08:53:13;8.15;;;3.40;;
36691;SDS011;22678;52.052;4.242;2022-08-19T08:55:41;3.95;;;1.17;;
36691;SDS011;22678;52.052;4.242;2022-08-19T08:58:30;6.03;;;1.40;;
36691;SDS011;22678;52.052;4.242;2022-08-19T09:00:56;7.18;;;1.98;;
36691;SDS011;22678;52.052;4.242;2022-08-19T09:03:23;8.65;;;2.72;;
36691;SDS011;22678;52.052;4.242;2022-08-19T09:08:45;6.93;;;1.55;;
36691;SDS011;22678;52.052;4.242;2022-08-19T09:11:13;4.53;;;1.30;;
36691;SDS011;22678;52.052;4.242;2022-08-19T09:16:31;9.02;;;1.73;;
36691;SDS011;22678;52.052;4.242;2022-08-19T09:18:58;4.60;;;0.93;;
36691;SDS011;22678;52.052;4.242;2022-08-19T09:21:27;8.05;;;2.45;;
36691;SDS011;22678;52.052;4.242;2022-08-19T09:23:52;5.85;;;2.92;;
36691;SDS011;22678;52.052;4.242;2022-08-19T09:26:19;5.85;;;1.17;;
36691;SDS011;22678;52.052;4.242;2022-08-19T09:28:47;4.30;;;1.08;;
36691;SDS011;22678;52.052;4.242;2022-08-19T09:31:18;3.60;;;2.08;;
36691;SDS011;22678;52.052;4.242;2022-08-19T09:33:46;4.53;;;0.70;;
36691;SDS011;22678;52.052;4.242;2022-08-19T09:36:13;11.30;;;1.42;;
36691;SDS011;22678;52.052;4.242;2022-08-19T09:38:40;6.10;;;1.13;;
36691;SDS011;22678;52.052;4.242;2022-08-19T09:41:08;6.90;;;2.33;;
36691;SDS011;22678;52.052;4.242;2022-08-19T09:43:37;3.92;;;0.90;;
36691;SDS011;22678;52.052;4.242;2022-08-19T09:46:03;4.60;;;0.68;;
36691;SDS011;22678;52.052;4.242;2022-08-19T09:48:32;3.53;;;0.68;;
36691;SDS011;22678;52.052;4.242;2022-08-19T09:51:05;3.03;;;0.80;;
36691;SDS011;22678;52.052;4.242;2022-08-19T09:53:33;6.28;;;1.33;;
36691;SDS011;22678;52.052;4.242;2022-08-19T09:56:02;1.70;;;1.05;;
36691;SDS011;22678;52.052;4.242;2022-08-19T09:58:29;3.45;;;0.60;;
36691;SDS011;22678;52.052;4.242;2022-08-19T10:00:55;3.05;;;0.70;;
36691;SDS011;22678;52.052;4.242;2022-08-19T10:03:22;4.25;;;0.80;;
36691;SDS011;22678;52.052;4.242;2022-08-19T10:05:47;4.38;;;0.90;;
36691;SDS011;22678;52.052;4.242;2022-08-19T10:08:14;5.22;;;1.92;;
36691;SDS011;22678;52.052;4.242;2022-08-19T10:10:48;5.90;;;1.40;;
36691;SDS011;22678;52.052;4.242;2022-08-19T10:13:14;2.95;;;0.60;;
36691;SDS011;22678;52.052;4.242;2022-08-19T10:15:41;2.72;;;0.50;;
36691;SDS011;22678;52.052;4.242;2022-08-19T10:18:07;6.72;;;0.90;;
36691;SDS011;22678;52.052;4.242;2022-08-19T10:20:32;5.25;;;0.80;;
36691;SDS011;22678;52.052;4.242;2022-08-19T10:23:00;1.92;;;0.57;;
36691;SDS011;22678;52.052;4.242;2022-08-19T10:25:25;3.65;;;0.60;;
36691;SDS011;22678;52.052;4.242;2022-08-19T10:27:51;4.63;;;0.73;;
36691;SDS011;22678;52.052;4.242;2022-08-19T10:30:17;6.65;;;0.98;;
36691;SDS011;22678;52.052;4.242;2022-08-19T10:32:43;4.20;;;0.90;;
36691;SDS011;22678;52.052;4.242;2022-08-19T10:35:10;8.75;;;1.35;;
36691;SDS011;22678;52.052;4.242;2022-08-19T10:37:38;3.38;;;0.70;;
36691;SDS011;22678;52.052;4.242;2022-08-19T10:40:04;3.95;;;0.85;;
36691;SDS011;22678;52.052;4.242;2022-08-19T10:42:32;5.32;;;1.58;;
36691;SDS011;22678;52.052;4.242;2022-08-19T10:44:58;4.80;;;0.80;;
36691;SDS011;22678;52.052;4.242;2022-08-19T10:47:23;5.20;;;1.05;;
36691;SDS011;22678;52.052;4.242;2022-08-19T10:49:49;2.70;;;0.68;;
36691;SDS011;22678;52.052;4.242;2022-08-19T10:52:32;1.98;;;0.60;;
36691;SDS011;22678;52.052;4.242;2022-08-19T10:54:58;3.15;;;0.52;;
36691;SDS011;22678;52.052;4.242;2022-08-19T10:57:48;4.65;;;0.70;;
36691;SDS011;22678;52.052;4.242;2022-08-19T11:00:13;5.18;;;0.70;;
36691;SDS011;22678;52.052;4.242;2022-08-19T11:02:39;2.47;;;0.77;;
36691;SDS011;22678;52.052;4.242;2022-08-19T11:05:04;4.00;;;0.77;;
36691;SDS011;22678;52.052;4.242;2022-08-19T11:07:31;5.55;;;1.13;;
36691;SDS011;22678;52.052;4.242;2022-08-19T11:09:57;4.95;;;0.98;;
36691;SDS011;22678;52.052;4.242;2022-08-19T11:12:22;6.25;;;1.20;;
36691;SDS011;22678;52.052;4.242;2022-08-19T11:14:47;5.03;;;1.25;;
36691;SDS011;22678;52.052;4.242;2022-08-19T11:17:14;3.25;;;0.68;;
36691;SDS011;22678;52.052;4.242;2022-08-19T11:19:40;6.32;;;0.75;;
36691;SDS011;22678;52.052;4.242;2022-08-19T11:22:07;4.28;;;1.30;;
36691;SDS011;22678;52.052;4.242;2022-08-19T11:24:34;5.03;;;1.05;;
36691;SDS011;22678;52.052;4.242;2022-08-19T11:27:05;3.42;;;0.80;;
36691;SDS011;22678;52.052;4.242;2022-08-19T11:29:32;2.90;;;1.17;;
36691;SDS011;22678;52.052;4.242;2022-08-19T11:31:59;6.18;;;0.70;;
36691;SDS011;22678;52.052;4.242;2022-08-19T11:34:27;5.65;;;1.27;;
36691;SDS011;22678;52.052;4.242;2022-08-19T11:36:53;1.80;;;0.55;;
36691;SDS011;22678;52.052;4.242;2022-08-19T11:39:23;4.90;;;0.88;;
36691;SDS011;22678;52.052;4.242;2022-08-19T11:41:49;1.58;;;0.57;;
36691;SDS011;22678;52.052;4.242;2022-08-19T11:44:15;2.67;;;0.65;;
36691;SDS011;22678;52.052;4.242;2022-08-19T11:46:42;4.45;;;1.98;;
36691;SDS011;22678;52.052;4.242;2022-08-19T11:49:11;3.65;;;0.73;;
36691;SDS011;22678;52.052;4.242;2022-08-19T11:51:38;5.47;;;1.10;;
36691;SDS011;22678;52.052;4.242;2022-08-19T11:54:05;2.45;;;0.88;;
36691;SDS011;22678;52.052;4.242;2022-08-19T11:56:31;4.38;;;0.77;;
36691;SDS011;22678;52.052;4.242;2022-08-19T11:58:57;2.85;;;0.45;;
36691;SDS011;22678;52.052;4.242;2022-08-19T12:01:23;3.92;;;0.73;;
36691;SDS011;22678;52.052;4.242;2022-08-19T12:03:50;2.63;;;0.40;;
36691;SDS011;22678;52.052;4.242;2022-08-19T12:06:19;3.35;;;0.40;;
36691;SDS011;22678;52.052;4.242;2022-08-19T12:08:53;3.70;;;0.65;;
36691;SDS011;22678;52.052;4.242;2022-08-19T12:11:18;1.70;;;0.60;;
36691;SDS011;22678;52.052;4.242;2022-08-19T12:13:44;5.07;;;1.60;;
36691;SDS011;22678;52.052;4.242;2022-08-19T12:16:12;3.83;;;1.23;;
36691;SDS011;22678;52.052;4.242;2022-08-19T12:18:40;2.13;;;0.50;;
36691;SDS011;22678;52.052;4.242;2022-08-19T12:21:08;2.78;;;0.38;;
36691;SDS011;22678;52.052;4.242;2022-08-19T12:23:35;1.88;;;0.50;;
36691;SDS011;22678;52.052;4.242;2022-08-19T12:26:02;5.43;;;0.68;;
36691;SDS011;22678;52.052;4.242;2022-08-19T12:28:28;2.40;;;0.70;;
36691;SDS011;22678;52.052;4.242;2022-08-19T12:30:55;4.60;;;0.47;;
36691;SDS011;22678;52.052;4.242;2022-08-19T12:33:21;3.20;;;0.65;;
36691;SDS011;22678;52.052;4.242;2022-08-19T12:35:49;4.13;;;0.60;;
36691;SDS011;22678;52.052;4.242;2022-08-19T12:38:15;2.80;;;0.85;;
36691;SDS011;22678;52.052;4.242;2022-08-19T12:40:41;3.83;;;0.70;;
36691;SDS011;22678;52.052;4.242;2022-08-19T12:43:07;3.28;;;1.10;;
36691;SDS011;22678;52.052;4.242;2022-08-19T12:45:32;5.95;;;0.90;;
36691;SDS011;22678;52.052;4.242;2022-08-19T12:47:58;3.13;;;0.50;;
36691;SDS011;22678;52.052;4.242;2022-08-19T12:50:24;4.28;;;0.75;;
36691;SDS011;22678;52.052;4.242;2022-08-19T12:52:49;1.73;;;0.40;;
36691;SDS011;22678;52.052;4.242;2022-08-19T12:55:14;3.28;;;0.52;;
36691;SDS011;22678;52.052;4.242;2022-08-19T12:57:40;3.95;;;0.85;;
36691;SDS011;22678;52.052;4.242;2022-08-19T13:00:06;2.42;;;0.43;;
36691;SDS011;22678;52.052;4.242;2022-08-19T13:02:42;2.50;;;0.65;;
36691;SDS011;22678;52.052;4.242;2022-08-19T13:05:10;1.90;;;0.88;;
36691;SDS011;22678;52.052;4.242;2022-08-19T13:07:37;1.75;;;0.47;;
36691;SDS011;22678;52.052;4.242;2022-08-19T13:10:04;1.27;;;0.50;;
36691;SDS011;22678;52.052;4.242;2022-08-19T13:12:30;1.50;;;0.30;;
36691;SDS011;22678;52.052;4.242;2022-08-19T13:14:55;5.63;;;0.60;;
36691;SDS011;22678;52.052;4.242;2022-08-19T13:17:21;1.55;;;0.40;;
36691;SDS011;22678;52.052;4.242;2022-08-19T13:19:47;2.10;;;0.50;;
36691;SDS011;22678;52.052;4.242;2022-08-19T13:22:12;2.20;;;0.50;;
36691;SDS011;22678;52.052;4.242;2022-08-19T13:24:37;3.25;;;0.70;;
36691;SDS011;22678;52.052;4.242;2022-08-19T13:27:03;2.08;;;0.60;;
36691;SDS011;22678;52.052;4.242;2022-08-19T13:29:29;2.75;;;0.68;;
36691;SDS011;22678;52.052;4.242;2022-08-19T13:32:13;3.47;;;1.15;;
36691;SDS011;22678;52.052;4.242;2022-08-19T13:34:57;6.93;;;0.88;;
36691;SDS011;22678;52.052;4.242;2022-08-19T13:37:22;3.00;;;0.95;;
36691;SDS011;22678;52.052;4.242;2022-08-19T13:40:06;1.75;;;0.68;;
36691;SDS011;22678;52.052;4.242;2022-08-19T13:42:37;11.18;;;1.20;;
36691;SDS011;22678;52.052;4.242;2022-08-19T13:45:03;2.60;;;1.35;;
36691;SDS011;22678;52.052;4.242;2022-08-19T13:47:31;3.80;;;0.85;;
36691;SDS011;22678;52.052;4.242;2022-08-19T13:49:56;5.93;;;0.85;;
36691;SDS011;22678;52.052;4.242;2022-08-19T13:52:21;2.63;;;0.70;;
36691;SDS011;22678;52.052;4.242;2022-08-19T13:54:47;1.92;;;0.60;;
36691;SDS011;22678;52.052;4.242;2022-08-19T13:57:13;2.88;;;0.50;;
36691;SDS011;22678;52.052;4.242;2022-08-19T13:59:38;4.93;;;0.90;;
36691;SDS011;22678;52.052;4.242;2022-08-19T14:02:04;6.43;;;1.80;;
36691;SDS011;22678;52.052;4.242;2022-08-19T14:04:30;4.63;;;0.70;;
36691;SDS011;22678;52.052;4.242;2022-08-19T14:06:55;4.35;;;1.20;;
36691;SDS011;22678;52.052;4.242;2022-08-19T14:09:21;3.20;;;0.68;;
36691;SDS011;22678;52.052;4.242;2022-08-19T14:11:46;3.25;;;0.60;;
36691;SDS011;22678;52.052;4.242;2022-08-19T14:14:11;1.67;;;0.80;;
36691;SDS011;22678;52.052;4.242;2022-08-19T14:16:37;2.33;;;0.77;;
36691;SDS011;22678;52.052;4.242;2022-08-19T14:19:02;4.88;;;1.20;;
36691;SDS011;22678;52.052;4.242;2022-08-19T14:21:28;6.38;;;0.80;;
36691;SDS011;22678;52.052;4.242;2022-08-19T14:23:53;4.13;;;0.90;;
36691;SDS011;22678;52.052;4.242;2022-08-19T14:26:19;4.18;;;0.80;;
36691;SDS011;22678;52.052;4.242;2022-08-19T14:28:46;4.05;;;0.80;;
36691;SDS011;22678;52.052;4.242;2022-08-19T14:31:12;5.75;;;2.08;;
36691;SDS011;22678;52.052;4.242;2022-08-19T14:33:43;4.27;;;0.67;;
36691;SDS011;22678;52.052;4.242;2022-08-19T14:36:08;10.65;;;2.22;;
36691;SDS011;22678;52.052;4.242;2022-08-19T14:38:34;2.72;;;0.93;;
36691;SDS011;22678;52.052;4.242;2022-08-19T14:43:58;5.18;;;0.85;;
36691;SDS011;22678;52.052;4.242;2022-08-19T14:46:25;3.78;;;0.50;;
36691;SDS011;22678;52.052;4.242;2022-08-19T14:48:52;1.80;;;0.45;;
36691;SDS011;22678;52.052;4.242;2022-08-19T14:51:19;2.53;;;1.10;;